createdAt,value
2016-10-05T00:00:55.747Z,-2.35
2016-10-05T00:01:55.728Z,-2.44
2016-10-05T00:02:55.689Z,-2.46
2016-10-05T00:03:55.698Z,-2.65
2016-10-05T00:04:55.672Z,-2.59
2016-10-05T00:05:55.661Z,-2.71
2016-10-05T00:06:55.650Z,-2.77
2016-10-05T00:07:55.623Z,-2.79
2016-10-05T00:08:55.611Z,-2.84
2016-10-05T00:09:55.591Z,-2.9
2016-10-05T00:10:55.580Z,-3.02
2016-10-05T00:11:55.545Z,-3.02
2016-10-05T00:12:55.540Z,-3.01
2016-10-05T00:13:55.528Z,-2.76
2016-10-05T00:14:55.703Z,-2.84
2016-10-05T00:15:55.499Z,-2.77
2016-10-05T00:16:55.464Z,-2.8
2016-10-05T00:17:55.458Z,-2.83
2016-10-05T00:18:55.420Z,-2.84
2016-10-05T00:19:55.434Z,-3.01
2016-10-05T00:20:55.421Z,-3.13
2016-10-05T00:21:55.381Z,-3
2016-10-05T00:22:55.375Z,-3.08
2016-10-05T00:23:55.354Z,-3.01
2016-10-05T00:24:55.331Z,-2.87
2016-10-05T00:25:55.300Z,-2.84
2016-10-05T00:26:55.313Z,-2.77
2016-10-05T00:27:55.293Z,-2.84
2016-10-05T00:28:55.251Z,-3.02
2016-10-05T00:29:55.241Z,-3.12
2016-10-05T00:30:55.213Z,-3.13
2016-10-05T00:31:55.222Z,-3.19
2016-10-05T00:32:55.197Z,-3.21
2016-10-05T00:33:55.195Z,-3.3
2016-10-05T00:34:55.187Z,-3.3
2016-10-05T00:35:55.157Z,-3.25
2016-10-05T00:36:55.127Z,-3.31
2016-10-05T00:37:55.106Z,-3.31
2016-10-05T00:38:55.098Z,-3.3
2016-10-05T00:39:55.072Z,-3.21
2016-10-05T00:40:55.083Z,-3.36
2016-10-05T00:41:55.070Z,-3.28
2016-10-05T00:42:55.035Z,-3.36
2016-10-05T00:43:55.003Z,-3.36
2016-10-05T00:44:55.008Z,-3.31
2016-10-05T00:45:54.993Z,-3.21
2016-10-05T00:46:54.956Z,-3.26
2016-10-05T00:47:54.954Z,-3.33
2016-10-05T00:48:54.945Z,-3.3
2016-10-05T00:49:54.915Z,-3.31
2016-10-05T00:50:54.891Z,-3.26
2016-10-05T00:51:54.873Z,-3.31
2016-10-05T00:52:54.866Z,-3.34
2016-10-05T00:53:54.837Z,-3.47
2016-10-05T00:54:54.838Z,-3.47
2016-10-05T00:55:54.816Z,-3.41
2016-10-05T00:56:54.804Z,-3.41
2016-10-05T00:57:54.756Z,-3.4
2016-10-05T00:58:54.772Z,-3.46
2016-10-05T00:59:54.733Z,-3.39
2016-10-05T01:00:54.723Z,-3.41
2016-10-05T01:01:54.704Z,-3.39
2016-10-05T01:02:54.677Z,-3.41
2016-10-05T01:03:54.668Z,-3.39
2016-10-05T01:04:54.639Z,-3.33
2016-10-05T01:05:54.634Z,-3.37
2016-10-05T01:06:54.618Z,-3.43
2016-10-05T01:07:54.963Z,-3.41
2016-10-05T01:08:54.563Z,-3.46
2016-10-05T01:09:54.545Z,-3.52
2016-10-05T01:10:54.554Z,-3.39
2016-10-05T01:11:54.522Z,-3.28
2016-10-05T01:12:54.515Z,-3.19
2016-10-05T01:13:54.476Z,-3.23
2016-10-05T01:14:54.480Z,-3.26
2016-10-05T01:15:54.474Z,-3.44
2016-10-05T01:16:54.428Z,-3.44
2016-10-05T01:17:54.444Z,-3.55
2016-10-05T01:18:54.418Z,-3.46
2016-10-05T01:19:54.394Z,-3.39
2016-10-05T01:20:54.379Z,-3.49
2016-10-05T01:21:54.363Z,-3.36
2016-10-05T01:22:54.336Z,-3.28
2016-10-05T01:23:54.321Z,-3.41
2016-10-05T01:24:54.329Z,-3.43
2016-10-05T01:25:54.306Z,-3.55
2016-10-05T01:26:54.271Z,-3.62
2016-10-05T01:27:54.252Z,-3.58
2016-10-05T01:28:54.243Z,-3.31
2016-10-05T01:29:54.231Z,-3.28
2016-10-05T01:30:54.221Z,-3.21
2016-10-05T01:31:54.188Z,-3.15
2016-10-05T01:32:54.162Z,-3.26
2016-10-05T01:33:54.155Z,-3.28
2016-10-05T01:34:54.133Z,-3.22
2016-10-05T01:35:54.106Z,-3.22
2016-10-05T01:36:54.086Z,-3.28
2016-10-05T01:37:54.090Z,-3.28
2016-10-05T01:38:54.084Z,-3.37
2016-10-05T01:39:54.056Z,-3.3
2016-10-05T01:40:54.033Z,-3.46
2016-10-05T01:41:54.018Z,-3.39
2016-10-05T01:42:53.997Z,-3.36
2016-10-05T01:43:53.978Z,-3.41
2016-10-05T01:44:53.949Z,-3.49
2016-10-05T01:45:53.969Z,-3.55
2016-10-05T01:46:53.919Z,-3.69
2016-10-05T01:47:53.906Z,-3.69
2016-10-05T01:48:53.890Z,-3.65
2016-10-05T01:49:53.881Z,-3.74
2016-10-05T01:50:53.880Z,-3.65
2016-10-05T01:51:53.845Z,-3.55
2016-10-05T01:52:53.827Z,-3.58
2016-10-05T01:53:53.810Z,-3.7
2016-10-05T01:54:53.787Z,-3.59
2016-10-05T01:55:53.766Z,-3.54
2016-10-05T01:56:53.778Z,-3.59
2016-10-05T01:57:53.751Z,-3.57
2016-10-05T01:58:53.716Z,-3.36
2016-10-05T01:59:53.705Z,-3.31
2016-10-05T02:00:53.697Z,-3.23
2016-10-05T02:01:53.672Z,-3.26
2016-10-05T02:02:53.672Z,-3.37
2016-10-05T02:03:53.643Z,-3.4
2016-10-05T02:04:53.605Z,-3.34
2016-10-05T02:05:53.603Z,-3.31
2016-10-05T02:06:53.599Z,-3.1
2016-10-05T02:07:53.573Z,-3.08
2016-10-05T02:08:53.552Z,-3.22
2016-10-05T02:09:53.542Z,-3.26
2016-10-05T02:10:53.503Z,-3.31
2016-10-05T02:11:53.501Z,-3.23
2016-10-05T02:12:53.487Z,-3.36
2016-10-05T02:13:53.468Z,-3.23
2016-10-05T02:14:53.434Z,-3.25
2016-10-05T02:15:53.453Z,-3.28
2016-10-05T02:16:53.428Z,-3.33
2016-10-05T02:17:53.384Z,-3.34
2016-10-05T02:18:53.396Z,-3.25
2016-10-05T02:19:53.366Z,-3.36
2016-10-05T02:20:53.349Z,-3.36
2016-10-05T02:21:53.309Z,-3.31
2016-10-05T02:22:53.305Z,-3.34
2016-10-05T02:23:53.291Z,-3.4
2016-10-05T02:24:53.282Z,-3.22
2016-10-05T02:25:53.272Z,-3.22
2016-10-05T02:26:53.237Z,-3.26
2016-10-05T02:27:53.208Z,-3.23
2016-10-05T02:28:53.210Z,-3.22
2016-10-05T02:29:53.211Z,-3.34
2016-10-05T02:30:53.187Z,-3.23
2016-10-05T02:31:53.162Z,-3.34
2016-10-05T02:32:53.114Z,-3.3
2016-10-05T02:33:53.125Z,-3.43
2016-10-05T02:34:53.095Z,-3.52
2016-10-05T02:35:53.070Z,-3.37
2016-10-05T02:36:53.075Z,-3.51
2016-10-05T02:37:53.045Z,-3.62
2016-10-05T02:38:53.027Z,-3.58
2016-10-05T02:39:53.010Z,-3.61
2016-10-05T02:40:52.976Z,-3.62
2016-10-05T02:41:52.963Z,-3.7
2016-10-05T02:42:52.963Z,-3.58
2016-10-05T02:43:52.945Z,-3.69
2016-10-05T02:44:52.931Z,-3.68
2016-10-05T02:45:52.909Z,-3.52
2016-10-05T02:46:52.875Z,-3.44
2016-10-05T02:47:52.865Z,-3.46
2016-10-05T02:48:52.870Z,-3.41
2016-10-05T02:49:52.830Z,-3.34
2016-10-05T02:50:52.803Z,-3.36
2016-10-05T02:51:52.824Z,-3.44
2016-10-05T02:52:52.792Z,-3.43
2016-10-05T02:53:52.765Z,-3.37
2016-10-05T02:54:52.758Z,-3.31
2016-10-05T02:55:52.735Z,-3.34
2016-10-05T02:56:52.719Z,-3.34
2016-10-05T02:57:52.684Z,-3.37
2016-10-05T02:58:52.707Z,-3.26
2016-10-05T02:59:52.653Z,-3.34
2016-10-05T03:00:52.631Z,-3.3
2016-10-05T03:01:52.622Z,-3.26
2016-10-05T03:02:52.622Z,-3.26
2016-10-05T03:03:52.595Z,-3.21
2016-10-05T03:04:52.588Z,-3.21
2016-10-05T03:05:52.562Z,-3.31
2016-10-05T03:06:52.553Z,-3.43
2016-10-05T03:07:52.545Z,-3.41
2016-10-05T03:08:52.521Z,-3.54
2016-10-05T03:09:52.503Z,-3.54
2016-10-05T03:10:52.461Z,-3.68
2016-10-05T03:11:52.451Z,-3.76
2016-10-05T03:12:52.447Z,-3.95
2016-10-05T03:13:52.429Z,-3.99
2016-10-05T03:14:52.409Z,-3.97
2016-10-05T03:15:52.374Z,-3.92
2016-10-05T03:16:52.358Z,-3.94
2016-10-05T03:17:52.347Z,-3.94
2016-10-05T03:18:52.343Z,-3.95
2016-10-05T03:19:52.337Z,-3.97
2016-10-05T03:20:52.320Z,-3.94
2016-10-05T03:21:52.264Z,-3.99
2016-10-05T03:22:52.281Z,-3.91
2016-10-05T03:23:52.259Z,-3.72
2016-10-05T03:24:52.219Z,-3.74
2016-10-05T03:25:52.232Z,-3.77
2016-10-05T03:26:52.193Z,-3.77
2016-10-05T03:27:52.190Z,-3.69
2016-10-05T03:28:52.166Z,-3.58
2016-10-05T03:29:52.138Z,-3.58
2016-10-05T03:30:52.122Z,-3.62
2016-10-05T03:31:52.104Z,-3.68
2016-10-05T03:32:52.074Z,-3.79
2016-10-05T03:33:52.060Z,-3.92
2016-10-05T03:34:52.055Z,-3.81
2016-10-05T03:35:52.033Z,-3.7
2016-10-05T03:36:52.021Z,-3.68
2016-10-05T03:37:52.010Z,-3.68
2016-10-05T03:38:51.967Z,-3.68
2016-10-05T03:39:51.970Z,-3.65
2016-10-05T03:40:51.956Z,-3.68
2016-10-05T03:41:51.908Z,-3.76
2016-10-05T03:42:52.228Z,-3.89
2016-10-05T03:43:51.897Z,-3.97
2016-10-05T03:44:51.857Z,-3.99
2016-10-05T03:45:52.152Z,-3.94
2016-10-05T03:46:51.860Z,-3.95
2016-10-05T03:47:51.837Z,-3.89
2016-10-05T03:48:51.811Z,-3.8
2016-10-05T03:49:51.790Z,-3.69
2016-10-05T03:50:51.770Z,-3.58
2016-10-05T03:51:51.757Z,-3.74
2016-10-05T03:52:51.752Z,-3.74
2016-10-05T03:53:51.703Z,-3.8
2016-10-05T03:54:51.688Z,-3.65
2016-10-05T03:55:51.669Z,-3.68
2016-10-05T03:56:51.650Z,-3.72
2016-10-05T03:57:51.653Z,-3.88
2016-10-05T03:58:51.960Z,-3.79
2016-10-05T03:59:51.595Z,-3.8
2016-10-05T04:00:51.596Z,-4.02
2016-10-05T04:01:51.563Z,-3.97
2016-10-05T04:02:51.573Z,-3.99
2016-10-05T04:03:51.588Z,-3.98
2016-10-05T04:04:51.522Z,-3.86
2016-10-05T04:05:51.834Z,-3.69
2016-10-05T04:06:51.488Z,-3.59
2016-10-05T04:07:51.507Z,-3.41
2016-10-05T04:08:51.461Z,-3.37
2016-10-05T04:09:51.417Z,-3.26
2016-10-05T04:10:51.428Z,-3.36
2016-10-05T04:11:51.395Z,-3.34
2016-10-05T04:12:51.675Z,-3.34
2016-10-05T04:13:51.363Z,-3.36
2016-10-05T04:14:51.351Z,-3.37
2016-10-05T04:15:51.351Z,-3.39
2016-10-05T04:16:51.296Z,-3.44
2016-10-05T04:17:51.276Z,-3.61
2016-10-05T04:18:51.268Z,-3.7
2016-10-05T04:19:51.279Z,-3.81
2016-10-05T04:20:51.253Z,-3.81
2016-10-05T04:21:51.235Z,-3.95
2016-10-05T04:22:51.206Z,-3.98
2016-10-05T04:23:51.206Z,-3.97
2016-10-05T04:24:51.154Z,-3.95
2016-10-05T04:25:51.206Z,-4.02
2016-10-05T04:26:51.157Z,-3.94
2016-10-05T04:27:51.120Z,-3.99
2016-10-05T04:28:51.091Z,-4.12
2016-10-05T04:29:51.078Z,-4.16
2016-10-05T04:30:51.078Z,-4.27
2016-10-05T04:31:51.049Z,-4.34
2016-10-05T04:32:51.037Z,-4.19
2016-10-05T04:33:51.004Z,-4.09
2016-10-05T04:34:51.013Z,-3.74
2016-10-05T04:35:50.973Z,-3.64
2016-10-05T04:36:50.958Z,-3.59
2016-10-05T04:37:50.943Z,-3.69
2016-10-05T04:38:50.951Z,-3.65
2016-10-05T04:39:50.919Z,-3.69
2016-10-05T04:40:50.899Z,-3.44
2016-10-05T04:41:50.883Z,-3.13
2016-10-05T04:42:51.076Z,-3.01
2016-10-05T04:43:50.853Z,-2.97
2016-10-05T04:44:50.823Z,-3.05
2016-10-05T04:45:50.829Z,-3.01
2016-10-05T04:46:50.787Z,-3.1
2016-10-05T04:47:50.766Z,-2.95
2016-10-05T04:48:50.737Z,-3.12
2016-10-05T04:49:50.719Z,-3.16
2016-10-05T04:50:50.707Z,-3.21
2016-10-05T04:51:50.691Z,-3.31
2016-10-05T04:52:50.670Z,-3.28
2016-10-05T04:53:50.661Z,-3.39
2016-10-05T04:54:50.656Z,-3.36
2016-10-05T04:55:50.611Z,-3.54
2016-10-05T04:56:50.607Z,-3.59
2016-10-05T04:57:50.590Z,-3.7
2016-10-05T04:58:50.589Z,-3.77
2016-10-05T04:59:50.568Z,-3.76
2016-10-05T05:00:50.554Z,-3.81
2016-10-05T05:01:50.541Z,-3.77
2016-10-05T05:02:50.503Z,-3.74
2016-10-05T05:03:50.491Z,-3.84
2016-10-05T05:04:50.481Z,-3.72
2016-10-05T05:05:50.450Z,-3.77
2016-10-05T05:06:50.437Z,-3.77
2016-10-05T05:07:50.417Z,-3.81
2016-10-05T05:08:50.390Z,-3.72
2016-10-05T05:09:50.392Z,-3.77
2016-10-05T05:10:50.368Z,-3.69
2016-10-05T05:11:50.352Z,-3.54
2016-10-05T05:12:50.347Z,-3.49
2016-10-05T05:13:50.306Z,-3.58
2016-10-05T05:14:50.296Z,-3.47
2016-10-05T05:15:50.287Z,-3.43
2016-10-05T05:16:50.262Z,-3.4
2016-10-05T05:17:50.243Z,-3.33
2016-10-05T05:18:50.227Z,-3.21
2016-10-05T05:19:50.200Z,-3.28
2016-10-05T05:20:50.195Z,-3.23
2016-10-05T05:21:50.168Z,-3.23
2016-10-05T05:22:50.155Z,-3.16
2016-10-05T05:23:50.136Z,-3.26
2016-10-05T05:24:50.099Z,-3.23
2016-10-05T05:25:50.082Z,-3.3
2016-10-05T05:26:50.076Z,-3.33
2016-10-05T05:27:50.064Z,-3.37
2016-10-05T05:28:50.036Z,-3.4
2016-10-05T05:29:50.045Z,-3.34
2016-10-05T05:30:50.002Z,-3.33
2016-10-05T05:31:49.989Z,-3.36
2016-10-05T05:32:49.986Z,-3.36
2016-10-05T05:33:49.940Z,-3.46
2016-10-05T05:34:49.938Z,-3.47
2016-10-05T05:35:49.903Z,-3.47
2016-10-05T05:36:49.900Z,-3.44
2016-10-05T05:37:49.889Z,-3.59
2016-10-05T05:38:49.858Z,-3.62
2016-10-05T05:39:49.850Z,-3.77
2016-10-05T05:40:49.831Z,-3.8
2016-10-05T05:41:49.810Z,-3.8
2016-10-05T05:42:49.803Z,-3.8
2016-10-05T05:43:49.914Z,-3.72
2016-10-05T05:44:49.764Z,-3.43
2016-10-05T05:45:49.736Z,-3.21
2016-10-05T05:46:49.725Z,-3.13
2016-10-05T05:47:49.724Z,-3.13
2016-10-05T05:48:49.678Z,-2.98
2016-10-05T05:49:49.675Z,-3.1
2016-10-05T05:50:49.642Z,-3.15
2016-10-05T05:51:49.645Z,-3.13
2016-10-05T05:52:49.639Z,-3.19
2016-10-05T05:53:49.617Z,-3.08
2016-10-05T05:54:49.569Z,-3.1
2016-10-05T05:55:49.587Z,-2.98
2016-10-05T05:56:49.548Z,-2.86
2016-10-05T05:57:49.553Z,-2.64
2016-10-05T05:58:49.520Z,-2.74
2016-10-05T05:59:49.502Z,-2.68
2016-10-05T06:00:49.490Z,-2.68
2016-10-05T06:01:49.775Z,-2.65
2016-10-05T06:02:49.461Z,-2.66
2016-10-05T06:03:49.435Z,-2.61
2016-10-05T06:04:49.410Z,-2.51
2016-10-05T06:05:49.385Z,-2.41
2016-10-05T06:06:49.380Z,-2.32
2016-10-05T06:07:49.358Z,-2.07
2016-10-05T06:08:49.350Z,-2.06
2016-10-05T06:09:49.333Z,-1.88
2016-10-05T06:10:49.317Z,-1.53
2016-10-05T06:11:49.309Z,-1.39
2016-10-05T06:12:49.291Z,-1.41
2016-10-05T06:13:49.254Z,-1.57
2016-10-05T06:14:49.253Z,-1.46
2016-10-05T06:15:49.224Z,-1.31
2016-10-05T06:16:49.209Z,-1.28
2016-10-05T06:17:49.210Z,-1.38
2016-10-05T06:18:49.171Z,-1.31
2016-10-05T06:19:49.172Z,-1.56
2016-10-05T06:20:49.172Z,-1.7
2016-10-05T06:21:49.155Z,-1.62
2016-10-05T06:22:49.138Z,-1.71
2016-10-05T06:23:49.111Z,-1.51
2016-10-05T06:24:49.079Z,-1.65
2016-10-05T06:25:49.075Z,-1.56
2016-10-05T06:26:49.050Z,-1.39
2016-10-05T06:27:49.043Z,-1.1
2016-10-05T06:28:49.026Z,-0.9
2016-10-05T06:29:49.001Z,-0.59
2016-10-05T06:30:48.986Z,-0.44
2016-10-05T06:31:48.957Z,-0.59
2016-10-05T06:32:48.950Z,-0.37
2016-10-05T06:33:48.956Z,-0.38
2016-10-05T06:34:48.922Z,-0.5
2016-10-05T06:35:48.897Z,-0.38
2016-10-05T06:36:48.886Z,-0.02
2016-10-05T06:37:48.886Z,0.1
2016-10-05T06:38:48.857Z,0.17
2016-10-05T06:39:48.859Z,0.37
2016-10-05T06:40:48.839Z,0.25
2016-10-05T06:41:48.804Z,0.51
2016-10-05T06:42:48.797Z,0.64
2016-10-05T06:43:48.778Z,0.52
2016-10-05T06:44:48.761Z,0.44
2016-10-05T06:45:48.755Z,0.51
2016-10-05T06:46:48.753Z,0.68
2016-10-05T06:47:48.745Z,0.9
2016-10-05T06:48:48.722Z,0.99
2016-10-05T06:49:48.692Z,1.14
2016-10-05T06:50:48.672Z,0.88
2016-10-05T06:51:48.687Z,1.17
2016-10-05T06:52:48.677Z,1.13
2016-10-05T06:53:48.650Z,1.31
2016-10-05T06:54:48.640Z,1.47
2016-10-05T06:55:48.614Z,1.61
2016-10-05T06:56:48.622Z,1.49
2016-10-05T06:57:48.605Z,1.16
2016-10-05T06:58:48.579Z,1.29
2016-10-05T06:59:48.565Z,1.34
2016-10-05T07:00:48.546Z,1.71
2016-10-05T07:01:48.553Z,1.83
2016-10-05T07:02:48.511Z,2.05
2016-10-05T07:03:48.513Z,2.15
2016-10-05T07:04:48.497Z,2.43
2016-10-05T07:05:48.495Z,2.81
2016-10-05T07:06:48.479Z,2.9
2016-10-05T07:07:48.439Z,2.84
2016-10-05T07:08:48.445Z,2.71
2016-10-05T07:09:48.438Z,2.62
2016-10-05T07:10:48.432Z,2.79
2016-10-05T07:11:48.399Z,2.79
2016-10-05T07:12:48.385Z,2.89
2016-10-05T07:13:48.372Z,3.04
2016-10-05T07:14:48.374Z,3.25
2016-10-05T07:15:48.365Z,3.26
2016-10-05T07:16:48.323Z,3.19
2016-10-05T07:17:48.343Z,2.94
2016-10-05T07:18:48.332Z,2.98
2016-10-05T07:19:48.284Z,2.97
2016-10-05T07:20:48.390Z,3.07
2016-10-05T07:21:48.275Z,3.1
2016-10-05T07:22:48.283Z,3.28
2016-10-05T07:23:48.276Z,3.53
2016-10-05T07:24:48.260Z,3.84
2016-10-05T07:25:48.207Z,3.82
2016-10-05T07:26:48.208Z,3.81
2016-10-05T07:27:48.205Z,3.96
2016-10-05T07:28:48.195Z,3.96
2016-10-05T07:29:48.175Z,3.68
2016-10-05T07:30:48.160Z,3.56
2016-10-05T07:31:48.145Z,3.54
2016-10-05T07:32:48.125Z,3.54
2016-10-05T07:33:48.128Z,3.37
2016-10-05T07:34:48.116Z,3.44
2016-10-05T07:35:48.116Z,3.77
2016-10-05T07:36:48.085Z,3.99
2016-10-05T07:37:48.063Z,4.17
2016-10-05T07:38:48.063Z,4.2
2016-10-05T07:39:48.042Z,4.35
2016-10-05T07:40:48.048Z,4.68
2016-10-05T07:41:48.039Z,4.72
2016-10-05T07:42:48.022Z,5.17
2016-10-05T07:43:48.012Z,5.17
2016-10-05T07:44:48.021Z,5.29
2016-10-05T07:45:47.996Z,4.97
2016-10-05T07:46:47.979Z,4.56
2016-10-05T07:47:47.985Z,3.98
2016-10-05T07:48:47.964Z,3.57
2016-10-05T07:49:47.944Z,3.72
2016-10-05T07:50:47.937Z,3.68
2016-10-05T07:51:47.942Z,3.5
2016-10-05T07:52:47.904Z,3.53
2016-10-05T07:53:47.911Z,3.5
2016-10-05T07:54:47.886Z,3.63
2016-10-05T07:55:47.879Z,3.64
2016-10-05T07:56:47.884Z,3.25
2016-10-05T07:57:47.843Z,3.28
2016-10-05T07:58:47.825Z,3.92
2016-10-05T07:59:47.841Z,4.38
2016-10-05T08:00:47.816Z,4.84
2016-10-05T08:01:47.806Z,5.24
2016-10-05T08:02:47.807Z,5.4
2016-10-05T08:03:47.778Z,5.8
2016-10-05T08:04:47.767Z,5.84
2016-10-05T08:05:47.771Z,5.96
2016-10-05T08:06:47.752Z,6.14
2016-10-05T08:07:47.739Z,6.36
2016-10-05T08:08:47.744Z,6.43
2016-10-05T08:09:47.715Z,6.39
2016-10-05T08:10:47.717Z,6.38
2016-10-05T08:11:47.704Z,6.39
2016-10-05T08:12:47.693Z,6.46
2016-10-05T08:13:47.691Z,6.53
2016-10-05T08:14:47.667Z,6.63
2016-10-05T08:15:47.649Z,6.57
2016-10-05T08:16:47.644Z,6.63
2016-10-05T08:17:47.630Z,6.86
2016-10-05T08:18:47.627Z,6.9
2016-10-05T08:19:47.612Z,7.01
2016-10-05T08:20:47.599Z,7.19
2016-10-05T08:21:47.603Z,7.3
2016-10-05T08:22:47.600Z,7.27
2016-10-05T08:23:47.552Z,7
2016-10-05T08:24:47.856Z,7.09
2016-10-05T08:25:47.540Z,7.14
2016-10-05T08:26:47.531Z,7.18
2016-10-05T08:27:47.551Z,6.82
2016-10-05T08:28:47.511Z,6.51
2016-10-05T08:29:47.494Z,6.51
2016-10-05T08:30:47.499Z,6.02
2016-10-05T08:31:47.492Z,6.03
2016-10-05T08:32:47.480Z,6.27
2016-10-05T08:33:47.456Z,6.32
2016-10-05T08:34:47.465Z,6.02
2016-10-05T08:35:47.465Z,5.49
2016-10-05T08:36:47.451Z,5.22
2016-10-05T08:37:47.416Z,5.24
2016-10-05T08:38:47.423Z,5.44
2016-10-05T08:39:47.394Z,5.58
2016-10-05T08:40:47.401Z,5.63
2016-10-05T08:41:47.374Z,5.74
2016-10-05T08:42:47.376Z,5.24
2016-10-05T08:43:47.391Z,4.91
2016-10-05T08:44:47.341Z,4.5
2016-10-05T08:45:47.348Z,4.43
2016-10-05T08:46:47.351Z,4.26
2016-10-05T08:47:47.325Z,4.65
2016-10-05T08:48:47.302Z,4.88
2016-10-05T08:49:47.298Z,4.9
2016-10-05T08:50:47.288Z,5.04
2016-10-05T08:51:47.259Z,5.23
2016-10-05T08:52:47.272Z,5.63
2016-10-05T08:53:47.269Z,6.1
2016-10-05T08:54:47.258Z,6.5
2016-10-05T08:55:47.236Z,6.54
2016-10-05T08:56:47.208Z,6.6
2016-10-05T08:57:47.216Z,6.96
2016-10-05T08:58:47.189Z,7.01
2016-10-05T08:59:47.193Z,6.94
2016-10-05T09:00:47.168Z,7.05
2016-10-05T09:01:47.201Z,6.83
2016-10-05T09:02:47.162Z,6.73
2016-10-05T09:03:47.143Z,6.72
2016-10-05T09:04:47.167Z,6.87
2016-10-05T09:05:47.145Z,6.75
2016-10-05T09:06:47.136Z,6.25
2016-10-05T09:07:47.252Z,5.62
2016-10-05T09:08:47.084Z,5.4
2016-10-05T09:09:47.077Z,5.38
2016-10-05T09:10:47.086Z,5.15
2016-10-05T09:11:47.092Z,5.4
2016-10-05T09:12:47.076Z,5.35
2016-10-05T09:13:47.033Z,5.87
2016-10-05T09:14:47.054Z,6.46
2016-10-05T09:15:47.049Z,6.46
2016-10-05T09:16:47.014Z,6.17
2016-10-05T09:17:47.014Z,6.28
2016-10-05T09:18:47.021Z,6.57
2016-10-05T09:19:47.006Z,6.68
2016-10-05T09:20:46.972Z,6.6
2016-10-05T09:21:46.975Z,6.68
2016-10-05T09:22:46.974Z,7.24
2016-10-05T09:23:46.968Z,7.47
2016-10-05T09:24:46.927Z,7.5
2016-10-05T09:25:46.917Z,7.73
2016-10-05T09:26:46.908Z,7.11
2016-10-05T09:27:46.911Z,7.27
2016-10-05T09:28:46.895Z,7.45
2016-10-05T09:29:46.902Z,7.36
2016-10-05T09:30:46.874Z,7.15
2016-10-05T09:31:46.875Z,6.83
2016-10-05T09:32:46.861Z,6.93
2016-10-05T09:33:46.853Z,7.15
2016-10-05T09:34:46.852Z,7.11
2016-10-05T09:35:46.837Z,7.14
2016-10-05T09:36:46.831Z,7
2016-10-05T09:37:47.155Z,7.15
2016-10-05T09:38:46.816Z,7.19
2016-10-05T09:39:47.143Z,6.76
2016-10-05T09:40:46.798Z,5.99
2016-10-05T09:41:46.789Z,5.98
2016-10-05T09:42:46.782Z,6.16
2016-10-05T09:43:46.762Z,6.28
2016-10-05T09:44:46.763Z,5.83
2016-10-05T09:45:46.744Z,5.7
2016-10-05T09:46:46.724Z,5.96
2016-10-05T09:47:46.728Z,6.25
2016-10-05T09:48:46.715Z,6.45
2016-10-05T09:49:46.700Z,6.25
2016-10-05T09:50:46.693Z,5.78
2016-10-05T09:51:46.673Z,5.75
2016-10-05T09:52:46.677Z,5.66
2016-10-05T09:53:46.655Z,5.59
2016-10-05T09:54:46.659Z,5.6
2016-10-05T09:55:46.634Z,5.49
2016-10-05T09:56:46.638Z,5.27
2016-10-05T09:57:46.627Z,5.51
2016-10-05T09:58:46.602Z,6.1
2016-10-05T09:59:46.598Z,5.74
2016-10-05T10:00:46.592Z,5.35
2016-10-05T10:01:46.585Z,5.26
2016-10-05T10:02:46.566Z,5.4
2016-10-05T10:03:46.538Z,5.15
2016-10-05T10:04:46.543Z,5.35
2016-10-05T10:05:46.548Z,5.55
2016-10-05T10:06:46.544Z,5.6
2016-10-05T10:07:46.512Z,5.8
2016-10-05T10:08:46.598Z,5.92
2016-10-05T10:09:46.508Z,6.11
2016-10-05T10:10:46.477Z,6.43
2016-10-05T10:11:46.450Z,6.72
2016-10-05T10:12:46.452Z,6.58
2016-10-05T10:13:46.467Z,6.9
2016-10-05T10:14:46.445Z,7.19
2016-10-05T10:15:46.424Z,7.55
2016-10-05T10:16:46.424Z,7.18
2016-10-05T10:17:46.413Z,7.27
2016-10-05T10:18:46.405Z,7.3
2016-10-05T10:19:46.384Z,7.3
2016-10-05T10:20:46.374Z,7.27
2016-10-05T10:21:46.377Z,6.72
2016-10-05T10:22:46.365Z,6.5
2016-10-05T10:23:46.337Z,6.2
2016-10-05T10:24:46.313Z,6.2
2016-10-05T10:25:46.332Z,6.32
2016-10-05T10:26:46.297Z,6.2
2016-10-05T10:27:46.286Z,5.93
2016-10-05T10:28:46.297Z,6.03
2016-10-05T10:29:46.284Z,5.9
2016-10-05T10:30:46.249Z,5.93
2016-10-05T10:31:46.242Z,6.06
2016-10-05T10:32:46.231Z,6.69
2016-10-05T10:33:46.242Z,6.73
2016-10-05T10:34:46.240Z,6.57
2016-10-05T10:35:46.236Z,6.16
2016-10-05T10:36:46.221Z,5.8
2016-10-05T10:37:46.193Z,5.04
2016-10-05T10:38:46.484Z,4.51
2016-10-05T10:39:46.174Z,4.71
2016-10-05T10:40:46.154Z,4.83
2016-10-05T10:41:46.151Z,4.61
2016-10-05T10:42:46.142Z,4.24
2016-10-05T10:43:46.128Z,4.14
2016-10-05T10:44:46.121Z,3.52
2016-10-05T10:45:46.100Z,3.3
2016-10-05T10:46:46.089Z,3.56
2016-10-05T10:47:46.069Z,3.53
2016-10-05T10:48:46.073Z,3.34
2016-10-05T10:49:46.049Z,4.06
2016-10-05T10:50:46.058Z,5.09
2016-10-05T10:51:46.043Z,5.15
2016-10-05T10:52:46.300Z,5.14
2016-10-05T10:53:45.983Z,5.4
2016-10-05T10:54:45.991Z,5.55
2016-10-05T10:55:45.985Z,4.84
2016-10-05T10:56:45.955Z,4.2
2016-10-05T10:57:45.949Z,3.84
2016-10-05T10:58:45.955Z,3.19
2016-10-05T10:59:45.922Z,2.79
2016-10-05T11:00:45.903Z,2.2
2016-10-05T11:01:45.905Z,1.79
2016-10-05T11:02:45.884Z,1.24
2016-10-05T11:03:45.872Z,0.95
2016-10-05T11:04:45.865Z,0.72
2016-10-05T11:05:45.846Z,0.51
2016-10-05T11:06:45.836Z,0.35
2016-10-05T11:07:45.832Z,0.31
2016-10-05T11:08:45.798Z,0.07
2016-10-05T11:09:45.782Z,-0.34
2016-10-05T11:10:45.785Z,-0.39
2016-10-05T11:11:45.740Z,-0.78
2016-10-05T11:12:45.733Z,-1.18
2016-10-05T11:13:45.726Z,-1.31
2016-10-05T11:14:46.019Z,-1.38
2016-10-05T11:15:45.678Z,-1.46
2016-10-05T11:16:45.667Z,-1.41
2016-10-05T11:17:45.660Z,-1.29
2016-10-05T11:18:45.627Z,-1.28
2016-10-05T11:19:45.625Z,-0.96
2016-10-05T11:20:45.627Z,-0.71
2016-10-05T11:21:45.596Z,-0.59
2016-10-05T11:22:45.594Z,-0.71
2016-10-05T11:23:45.539Z,-0.78
2016-10-05T11:24:45.559Z,-0.5
2016-10-05T11:25:45.537Z,-0.34
2016-10-05T11:26:45.822Z,-0.44
2016-10-05T11:27:45.502Z,-0.19
2016-10-05T11:28:45.464Z,-0.2
2016-10-05T11:29:45.472Z,-0.08
2016-10-05T11:30:45.429Z,-0.08
2016-10-05T11:31:45.412Z,-0.01
2016-10-05T11:32:45.431Z,-0.01
2016-10-05T11:33:45.411Z,0.13
2016-10-05T11:34:45.384Z,0.02
2016-10-05T11:35:45.375Z,-0.08
2016-10-05T11:36:45.366Z,0.41
2016-10-05T11:37:45.626Z,0.62
2016-10-05T11:38:45.317Z,0.37
2016-10-05T11:39:45.614Z,0.53
2016-10-05T11:40:45.311Z,0.49
2016-10-05T11:41:45.268Z,0.62
2016-10-05T11:42:45.583Z,0.67
2016-10-05T11:43:45.240Z,1.35
2016-10-05T11:44:45.543Z,2.36
2016-10-05T11:45:45.523Z,3.01
2016-10-05T11:46:45.192Z,3.31
2016-10-05T11:47:45.179Z,3.15
2016-10-05T11:48:45.166Z,3.57
2016-10-05T11:49:45.163Z,3.95
2016-10-05T11:50:45.147Z,4.32
2016-10-05T11:51:45.128Z,4.99
2016-10-05T11:52:45.423Z,5.01
2016-10-05T11:53:45.102Z,4.1
2016-10-05T11:54:45.081Z,3.67
2016-10-05T11:55:45.074Z,3.35
2016-10-05T11:56:45.051Z,3.35
2016-10-05T11:57:45.038Z,3.46
2016-10-05T11:58:45.021Z,3.19
2016-10-05T11:59:45.036Z,3.04
2016-10-05T12:00:45.000Z,3.25
2016-10-05T12:01:44.983Z,3.75
2016-10-05T12:02:44.989Z,4.21
2016-10-05T12:03:44.967Z,4.28
2016-10-05T12:04:44.970Z,4.21
2016-10-05T12:05:44.939Z,4.1
2016-10-05T12:06:44.924Z,3.57
2016-10-05T12:07:44.917Z,2.98
2016-10-05T12:08:44.890Z,3.22
2016-10-05T12:09:44.873Z,3.23
2016-10-05T12:10:45.094Z,3.96
2016-10-05T12:11:44.873Z,4.49
2016-10-05T12:12:44.862Z,4.68
2016-10-05T12:13:44.837Z,4.87
2016-10-05T12:14:44.836Z,5.06
2016-10-05T12:15:45.028Z,5.33
2016-10-05T12:16:44.802Z,5.41
2016-10-05T12:17:44.806Z,5.09
2016-10-05T12:18:45.080Z,4.34
2016-10-05T12:19:45.082Z,3.62
2016-10-05T12:20:44.751Z,3.56
2016-10-05T12:21:44.732Z,3.57
2016-10-05T12:22:44.721Z,2.84
2016-10-05T12:23:45.028Z,2.45
2016-10-05T12:24:44.700Z,2.02
2016-10-05T12:25:44.682Z,1.71
2016-10-05T12:26:44.665Z,1.47
2016-10-05T12:27:44.654Z,1.31
2016-10-05T12:28:44.641Z,1.21
2016-10-05T12:29:44.648Z,1.13
2016-10-05T12:30:44.608Z,1.07
2016-10-05T12:31:44.598Z,1.18
2016-10-05T12:32:44.595Z,1.34
2016-10-05T12:33:44.556Z,1.38
2016-10-05T12:34:44.562Z,1.35
2016-10-05T12:35:44.540Z,1.1
2016-10-05T12:36:44.619Z,1.63
2016-10-05T12:37:44.512Z,1.85
2016-10-05T12:38:44.507Z,1.9
2016-10-05T12:39:44.506Z,1.9
2016-10-05T12:40:44.476Z,2.01
2016-10-05T12:41:44.452Z,1.72
2016-10-05T12:42:44.451Z,1.64
2016-10-05T12:43:44.628Z,1.29
2016-10-05T12:44:44.422Z,0.86
2016-10-05T12:45:44.571Z,1.36
2016-10-05T12:46:44.406Z,1.79
2016-10-05T12:47:44.380Z,1.77
2016-10-05T12:48:44.343Z,1.5
2016-10-05T12:49:44.335Z,1.77
2016-10-05T12:50:44.625Z,2.5
2016-10-05T12:51:44.336Z,1.81
2016-10-05T12:52:44.301Z,1.71
2016-10-05T12:53:44.611Z,1.67
2016-10-05T12:54:44.294Z,1.07
2016-10-05T12:55:44.260Z,1.6
2016-10-05T12:56:44.232Z,2.05
2016-10-05T12:57:44.256Z,2.45
2016-10-05T12:58:44.873Z,2.3
2016-10-05T12:59:44.208Z,2.04
2016-10-05T13:00:44.180Z,1.72
2016-10-05T13:01:44.198Z,1.75
2016-10-05T13:02:44.186Z,1.49
2016-10-05T13:03:44.155Z,1.21
2016-10-05T13:04:44.465Z,1.14
2016-10-05T13:05:44.135Z,0.62
2016-10-05T13:06:44.111Z,0.3
2016-10-05T13:07:44.113Z,0.41